sensor_id;sensor_type;location;lat;lon;timestamp;P1;P4;P2;P0;N10;N4;N25;N1;N05;TS
78519;SPS30;67818;51.986;5.648;2023-09-19T00:00:47;2.1;2.1;2.0;1.9;;;;2.0;105.0;
78519;SPS30;67818;51.986;5.648;2023-09-19T00:03:19;2.5;2.5;2.4;2.2;;;;2.0;109.0;
78519;SPS30;67818;51.986;5.648;2023-09-19T00:05:51;2.3;2.3;2.2;2.0;;;;2.0;100.0;
78519;SPS30;67818;51.986;5.648;2023-09-19T00:08:22;2.1;2.1;2.0;1.8;;;;2.0;85.0;
78519;SPS30;67818;51.986;5.648;2023-09-19T00:10:51;3.0;3.0;2.9;2.6;;;;2.0;74.0;
78519;SPS30;67818;51.986;5.648;2023-09-19T00:13:21;2.6;2.5;2.4;2.2;;;;2.0;68.0;
78519;SPS30;67818;51.986;5.648;2023-09-19T00:15:51;3.2;3.1;3.0;2.6;;;;2.0;61.0;
78519;SPS30;67818;51.986;5.648;2023-09-19T00:18:21;2.7;2.7;2.6;2.3;;;;2.0;61.0;
78519;SPS30;67818;51.986;5.648;2023-09-19T00:20:54;2.4;2.3;2.2;2.0;;;;2.0;63.0;
78519;SPS30;67818;51.986;5.648;2023-09-19T00:23:28;2.0;2.0;1.9;1.7;;;;2.0;62.0;
78519;SPS30;67818;51.986;5.648;2023-09-19T00:26:00;2.3;2.2;2.1;1.9;;;;2.0;62.0;
78519;SPS30;67818;51.986;5.648;2023-09-19T00:28:30;2.5;2.4;2.3;2.0;;;;2.0;64.0;
78519;SPS30;67818;51.986;5.648;2023-09-19T00:30:59;3.1;3.0;2.8;2.5;;;;2.0;64.0;
78519;SPS30;67818;51.986;5.648;2023-09-19T00:33:28;3.1;2.9;2.7;2.3;;;;2.0;67.0;
78519;SPS30;67818;51.986;5.648;2023-09-19T00:35:58;2.8;2.6;2.4;2.0;;;;2.0;78.0;
78519;SPS30;67818;51.986;5.648;2023-09-19T00:38:28;2.9;2.8;2.5;2.1;;;;2.0;78.0;
78519;SPS30;67818;51.986;5.648;2023-09-19T00:40:58;2.3;2.2;2.0;1.7;;;;2.0;74.0;
78519;SPS30;67818;51.986;5.648;2023-09-19T00:43:27;2.7;2.6;2.4;2.0;;;;2.0;73.0;
78519;SPS30;67818;51.986;5.648;2023-09-19T00:46:00;2.8;2.7;2.5;2.1;;;;2.0;75.0;
78519;SPS30;67818;51.986;5.648;2023-09-19T00:48:35;2.9;2.8;2.5;2.1;;;;2.0;82.0;
78519;SPS30;67818;51.986;5.648;2023-09-19T00:51:10;3.5;3.3;3.0;2.5;;;;2.0;105.0;
78519;SPS30;67818;51.986;5.648;2023-09-19T00:53:40;2.8;2.6;2.4;2.0;;;;2.0;94.0;
78519;SPS30;67818;51.986;5.648;2023-09-19T00:56:14;2.8;2.7;2.4;2.1;;;;2.0;94.0;
78519;SPS30;67818;51.986;5.648;2023-09-19T00:58:45;2.7;2.6;2.4;2.0;;;;2.0;96.0;
78519;SPS30;67818;51.986;5.648;2023-09-19T01:01:15;3.1;3.0;2.8;2.5;;;;2.0;94.0;
78519;SPS30;67818;51.986;5.648;2023-09-19T01:03:46;3.5;3.4;3.2;2.8;;;;2.0;91.0;
78519;SPS30;67818;51.986;5.648;2023-09-19T01:06:16;3.2;3.0;2.8;2.4;;;;2.0;78.0;
78519;SPS30;67818;51.986;5.648;2023-09-19T01:08:46;4.0;3.9;3.6;3.0;;;;2.0;80.0;
78519;SPS30;67818;51.986;5.648;2023-09-19T01:11:19;3.2;3.1;2.9;2.5;;;;2.0;79.0;
78519;SPS30;67818;51.986;5.648;2023-09-19T01:14:01;3.5;3.4;3.2;2.7;;;;2.0;94.0;
78519;SPS30;67818;51.986;5.648;2023-09-19T01:16:39;3.2;3.1;2.9;2.5;;;;2.0;91.0;
78519;SPS30;67818;51.986;5.648;2023-09-19T01:19:25;3.5;3.4;3.1;2.7;;;;2.0;79.0;
78519;SPS30;67818;51.986;5.648;2023-09-19T01:22:33;3.6;3.5;3.3;2.8;;;;2.0;77.0;
78519;SPS30;67818;51.986;5.648;2023-09-19T01:25:31;3.4;3.3;3.0;2.6;;;;2.0;95.0;
78519;SPS30;67818;51.986;5.648;2023-09-19T01:28:29;3.6;3.5;3.1;2.6;;;;2.0;95.0;
78519;SPS30;67818;51.986;5.648;2023-09-19T01:31:06;4.0;3.8;3.4;2.8;;;;2.0;92.0;
78519;SPS30;67818;51.986;5.648;2023-09-19T01:33:55;3.7;3.5;3.1;2.6;;;;2.0;94.0;
78519;SPS30;67818;51.986;5.648;2023-09-19T01:36:30;3.6;3.4;3.0;2.3;;;;2.0;87.0;
78519;SPS30;67818;51.986;5.648;2023-09-19T01:39:03;4.3;4.0;3.5;2.7;;;;2.0;76.0;
78519;SPS30;67818;51.986;5.648;2023-09-19T01:41:58;3.3;3.1;2.7;2.1;;;;2.0;77.0;
78519;SPS30;67818;51.986;5.648;2023-09-19T01:44:44;4.2;4.0;3.5;2.9;;;;2.0;86.0;
78519;SPS30;67818;51.986;5.648;2023-09-19T01:47:23;3.8;3.6;3.2;2.6;;;;2.0;84.0;
78519;SPS30;67818;51.986;5.648;2023-09-19T01:50:02;4.2;4.0;3.5;2.7;;;;2.0;76.0;
78519;SPS30;67818;51.986;5.648;2023-09-19T01:52:45;4.5;4.3;3.7;2.9;;;;2.0;76.0;
78519;SPS30;67818;51.986;5.648;2023-09-19T01:55:18;3.0;2.8;2.5;1.9;;;;2.0;75.0;
78519;SPS30;67818;51.986;5.648;2023-09-19T01:57:52;4.1;3.8;3.4;2.6;;;;2.0;67.0;
78519;SPS30;67818;51.986;5.648;2023-09-19T02:00:30;4.4;4.1;3.5;2.7;;;;2.0;63.0;
78519;SPS30;67818;51.986;5.648;2023-09-19T02:03:05;3.5;3.3;2.9;2.3;;;;2.0;65.0;
78519;SPS30;67818;51.986;5.648;2023-09-19T02:05:40;3.9;3.7;3.2;2.6;;;;2.0;66.0;
78519;SPS30;67818;51.986;5.648;2023-09-19T02:08:20;3.6;3.4;3.0;2.4;;;;2.0;70.0;
78519;SPS30;67818;51.986;5.648;2023-09-19T02:10:59;4.4;4.2;3.7;2.9;;;;2.0;65.0;
78519;SPS30;67818;51.986;5.648;2023-09-19T02:13:32;3.3;3.1;2.8;2.3;;;;2.0;64.0;
78519;SPS30;67818;51.986;5.648;2023-09-19T02:16:02;3.9;3.7;3.2;2.6;;;;2.0;66.0;
78519;SPS30;67818;51.986;5.648;2023-09-19T02:18:31;3.5;3.3;2.9;2.3;;;;2.0;65.0;
78519;SPS30;67818;51.986;5.648;2023-09-19T02:21:01;4.4;4.2;3.7;3.0;;;;2.0;67.0;
78519;SPS30;67818;51.986;5.648;2023-09-19T02:23:33;3.6;3.4;3.1;2.5;;;;2.0;75.0;
78519;SPS30;67818;51.986;5.648;2023-09-19T02:26:02;4.0;3.8;3.5;2.9;;;;2.0;75.0;
78519;SPS30;67818;51.986;5.648;2023-09-19T02:28:33;3.7;3.6;3.2;2.6;;;;2.0;80.0;
78519;SPS30;67818;51.986;5.648;2023-09-19T02:31:04;4.0;3.8;3.4;2.7;;;;2.0;84.0;
78519;SPS30;67818;51.986;5.648;2023-09-19T02:33:34;5.0;4.7;4.2;3.4;;;;2.0;79.0;
78519;SPS30;67818;51.986;5.648;2023-09-19T02:36:06;4.2;4.0;3.5;2.8;;;;2.0;67.0;
78519;SPS30;67818;51.986;5.648;2023-09-19T02:38:35;4.2;4.0;3.5;2.8;;;;2.0;68.0;
78519;SPS30;67818;51.986;5.648;2023-09-19T02:41:08;4.7;4.5;3.9;3.1;;;;2.0;66.0;
78519;SPS30;67818;51.986;5.648;2023-09-19T02:43:37;4.3;4.0;3.5;2.8;;;;2.0;66.0;
78519;SPS30;67818;51.986;5.648;2023-09-19T02:46:06;4.6;4.3;3.8;3.0;;;;2.0;67.0;
78519;SPS30;67818;51.986;5.648;2023-09-19T02:48:35;3.9;3.7;3.2;2.5;;;;2.0;65.0;
78519;SPS30;67818;51.986;5.648;2023-09-19T02:51:05;4.7;4.4;3.8;2.9;;;;2.0;63.0;
78519;SPS30;67818;51.986;5.648;2023-09-19T02:53:34;4.6;4.4;3.8;2.9;;;;2.0;59.0;
78519;SPS30;67818;51.986;5.648;2023-09-19T02:56:06;4.7;4.4;3.8;2.9;;;;2.0;57.0;
78519;SPS30;67818;51.986;5.648;2023-09-19T02:58:39;5.0;4.7;4.0;3.1;;;;2.0;57.0;
78519;SPS30;67818;51.986;5.648;2023-09-19T03:01:11;4.7;4.4;3.7;2.9;;;;2.0;59.0;
78519;SPS30;67818;51.986;5.648;2023-09-19T03:03:42;4.6;4.3;3.8;2.9;;;;2.0;58.0;
78519;SPS30;67818;51.986;5.648;2023-09-19T03:06:11;4.6;4.3;3.7;2.9;;;;2.0;54.0;
78519;SPS30;67818;51.986;5.648;2023-09-19T03:08:42;4.1;3.8;3.3;2.6;;;;2.0;48.0;
78519;SPS30;67818;51.986;5.648;2023-09-19T03:11:15;4.7;4.4;3.8;3.0;;;;2.0;44.0;
78519;SPS30;67818;51.986;5.648;2023-09-19T03:13:50;3.8;3.6;3.2;2.6;;;;2.0;46.0;
78519;SPS30;67818;51.986;5.648;2023-09-19T03:16:19;3.9;3.7;3.3;2.6;;;;2.0;47.0;
78519;SPS30;67818;51.986;5.648;2023-09-19T03:18:51;4.1;3.8;3.3;2.6;;;;2.0;47.0;
78519;SPS30;67818;51.986;5.648;2023-09-19T03:21:21;4.2;3.9;3.4;2.6;;;;2.0;47.0;
78519;SPS30;67818;51.986;5.648;2023-09-19T03:23:51;4.5;4.2;3.6;2.8;;;;2.0;48.0;
78519;SPS30;67818;51.986;5.648;2023-09-19T03:26:25;4.9;4.6;3.9;3.0;;;;2.0;51.0;
78519;SPS30;67818;51.986;5.648;2023-09-19T03:28:53;4.7;4.4;3.8;2.9;;;;2.0;43.0;
78519;SPS30;67818;51.986;5.648;2023-09-19T03:31:22;3.7;3.5;3.0;2.3;;;;2.0;42.0;
78519;SPS30;67818;51.986;5.648;2023-09-19T03:33:52;4.8;4.5;3.8;2.9;;;;2.0;43.0;
78519;SPS30;67818;51.986;5.648;2023-09-19T03:36:21;4.3;4.0;3.5;2.6;;;;2.0;39.0;
78519;SPS30;67818;51.986;5.648;2023-09-19T03:38:57;4.8;4.5;3.8;2.8;;;;2.0;39.0;
78519;SPS30;67818;51.986;5.648;2023-09-19T03:41:31;4.2;3.9;3.4;2.6;;;;2.0;40.0;
78519;SPS30;67818;51.986;5.648;2023-09-19T03:44:02;5.2;4.9;4.2;3.1;;;;2.0;40.0;
78519;SPS30;67818;51.986;5.648;2023-09-19T03:46:33;4.6;4.4;3.8;2.9;;;;2.0;44.0;
78519;SPS30;67818;51.986;5.648;2023-09-19T03:49:03;4.4;4.1;3.6;2.7;;;;2.0;53.0;
78519;SPS30;67818;51.986;5.648;2023-09-19T03:51:33;4.0;3.7;3.3;2.6;;;;2.0;55.0;
78519;SPS30;67818;51.986;5.648;2023-09-19T03:54:04;4.7;4.4;3.8;3.0;;;;2.0;56.0;
78519;SPS30;67818;51.986;5.648;2023-09-19T03:56:35;3.3;3.2;2.8;2.3;;;;2.0;70.0;
78519;SPS30;67818;51.986;5.648;2023-09-19T03:59:04;4.1;3.8;3.3;2.6;;;;2.0;73.0;
78519;SPS30;67818;51.986;5.648;2023-09-19T04:01:34;5.3;4.9;4.2;3.2;;;;2.0;75.0;
78519;SPS30;67818;51.986;5.648;2023-09-19T04:04:04;3.8;3.6;3.1;2.4;;;;2.0;74.0;
78519;SPS30;67818;51.986;5.648;2023-09-19T04:06:36;4.1;3.9;3.4;2.6;;;;2.0;78.0;
78519;SPS30;67818;51.986;5.648;2023-09-19T04:09:05;3.7;3.5;3.1;2.5;;;;2.0;76.0;
78519;SPS30;67818;51.986;5.648;2023-09-19T04:11:35;4.2;4.0;3.6;2.8;;;;2.0;67.0;
78519;SPS30;67818;51.986;5.648;2023-09-19T04:14:04;4.1;3.9;3.4;2.7;;;;2.0;62.0;
78519;SPS30;67818;51.986;5.648;2023-09-19T04:16:33;3.6;3.4;3.0;2.5;;;;2.0;64.0;
78519;SPS30;67818;51.986;5.648;2023-09-19T04:19:02;3.8;3.6;3.2;2.5;;;;2.0;75.0;
78519;SPS30;67818;51.986;5.648;2023-09-19T04:21:33;4.1;3.9;3.4;2.7;;;;2.0;77.0;
78519;SPS30;67818;51.986;5.648;2023-09-19T04:24:02;4.2;3.9;3.4;2.5;;;;2.0;65.0;
78519;SPS30;67818;51.986;5.648;2023-09-19T04:26:31;3.5;3.3;2.8;2.2;;;;2.0;65.0;
78519;SPS30;67818;51.986;5.648;2023-09-19T04:29:00;5.0;4.7;4.1;3.1;;;;2.0;99.0;
78519;SPS30;67818;51.986;5.648;2023-09-19T04:31:30;4.3;4.0;3.5;2.8;;;;2.0;94.0;
78519;SPS30;67818;51.986;5.648;2023-09-19T04:33:59;3.9;3.6;3.2;2.5;;;;2.0;91.0;
78519;SPS30;67818;51.986;5.648;2023-09-19T04:36:31;4.4;4.1;3.5;2.7;;;;2.0;90.0;
78519;SPS30;67818;51.986;5.648;2023-09-19T04:39:01;4.1;3.8;3.2;2.4;;;;2.0;91.0;
78519;SPS30;67818;51.986;5.648;2023-09-19T04:41:31;3.8;3.6;3.1;2.4;;;;2.0;76.0;
78519;SPS30;67818;51.986;5.648;2023-09-19T04:44:00;3.5;3.3;2.9;2.3;;;;2.0;88.0;
78519;SPS30;67818;51.986;5.648;2023-09-19T04:46:29;4.5;4.2;3.7;2.8;;;;2.0;99.0;
78519;SPS30;67818;51.986;5.648;2023-09-19T04:48:59;3.6;3.4;3.0;2.3;;;;2.0;85.0;
78519;SPS30;67818;51.986;5.648;2023-09-19T04:51:28;3.4;3.2;2.9;2.3;;;;2.0;77.0;
78519;SPS30;67818;51.986;5.648;2023-09-19T04:54:00;3.7;3.5;3.1;2.5;;;;2.0;67.0;
78519;SPS30;67818;51.986;5.648;2023-09-19T04:56:30;3.6;3.4;3.0;2.4;;;;2.0;69.0;
78519;SPS30;67818;51.986;5.648;2023-09-19T04:58:59;3.9;3.6;3.2;2.5;;;;2.0;72.0;
78519;SPS30;67818;51.986;5.648;2023-09-19T05:01:28;3.2;3.0;2.6;2.1;;;;2.0;72.0;
78519;SPS30;67818;51.986;5.648;2023-09-19T05:03:57;4.1;3.9;3.4;2.7;;;;2.0;63.0;
78519;SPS30;67818;51.986;5.648;2023-09-19T05:06:26;4.1;3.8;3.3;2.5;;;;2.0;61.0;
78519;SPS30;67818;51.986;5.648;2023-09-19T05:08:54;3.9;3.7;3.2;2.6;;;;2.0;62.0;
78519;SPS30;67818;51.986;5.648;2023-09-19T05:11:24;4.1;3.9;3.4;2.8;;;;2.0;60.0;
78519;SPS30;67818;51.986;5.648;2023-09-19T05:13:53;4.5;4.3;3.8;3.1;;;;2.0;52.0;
78519;SPS30;67818;51.986;5.648;2023-09-19T05:16:22;3.4;3.2;2.9;2.3;;;;2.0;52.0;
78519;SPS30;67818;51.986;5.648;2023-09-19T05:18:51;4.5;4.2;3.7;3.0;;;;2.0;52.0;
78519;SPS30;67818;51.986;5.648;2023-09-19T05:21:20;4.2;3.9;3.4;2.7;;;;2.0;54.0;
78519;SPS30;67818;51.986;5.648;2023-09-19T05:23:53;3.4;3.2;2.8;2.3;;;;2.0;56.0;
78519;SPS30;67818;51.986;5.648;2023-09-19T05:26:24;4.5;4.2;3.6;2.7;;;;2.0;58.0;
78519;SPS30;67818;51.986;5.648;2023-09-19T05:28:54;4.7;4.4;3.7;2.7;;;;2.0;58.0;
78519;SPS30;67818;51.986;5.648;2023-09-19T05:31:23;5.0;4.6;3.9;2.8;;;;2.0;57.0;
78519;SPS30;67818;51.986;5.648;2023-09-19T05:33:52;5.2;4.8;4.1;3.0;;;;2.0;53.0;
78519;SPS30;67818;51.986;5.648;2023-09-19T05:36:22;4.2;3.9;3.3;2.4;;;;2.0;53.0;
78519;SPS30;67818;51.986;5.648;2023-09-19T05:38:53;4.8;4.4;3.7;2.7;;;;2.0;71.0;
78519;SPS30;67818;51.986;5.648;2023-09-19T05:41:21;3.8;3.6;3.0;2.2;;;;2.0;77.0;
78519;SPS30;67818;51.986;5.648;2023-09-19T05:43:50;4.3;4.0;3.4;2.6;;;;2.0;72.0;
78519;SPS30;67818;51.986;5.648;2023-09-19T05:46:20;4.8;4.4;3.7;2.7;;;;2.0;83.0;
78519;SPS30;67818;51.986;5.648;2023-09-19T05:48:48;4.8;4.5;3.8;2.9;;;;2.0;116.0;
78519;SPS30;67818;51.986;5.648;2023-09-19T05:51:17;4.9;4.6;4.0;3.1;;;;2.0;135.0;
78519;SPS30;67818;51.986;5.648;2023-09-19T05:53:48;4.6;4.3;3.7;2.8;;;;2.0;128.0;
78519;SPS30;67818;51.986;5.648;2023-09-19T05:56:19;4.1;3.8;3.3;2.5;;;;2.0;122.0;
78519;SPS30;67818;51.986;5.648;2023-09-19T05:58:48;3.9;3.7;3.2;2.4;;;;2.0;116.0;
78519;SPS30;67818;51.986;5.648;2023-09-19T06:01:18;3.7;3.4;2.9;2.2;;;;2.0;116.0;
78519;SPS30;67818;51.986;5.648;2023-09-19T06:03:46;3.9;3.7;3.2;2.5;;;;2.0;118.0;
78519;SPS30;67818;51.986;5.648;2023-09-19T06:06:15;4.1;3.9;3.3;2.6;;;;2.0;110.0;
78519;SPS30;67818;51.986;5.648;2023-09-19T06:08:43;3.9;3.6;3.1;2.3;;;;2.0;109.0;
78519;SPS30;67818;51.986;5.648;2023-09-19T06:11:12;4.9;4.5;3.9;2.9;;;;2.0;105.0;
78519;SPS30;67818;51.986;5.648;2023-09-19T06:13:41;4.6;4.2;3.5;2.6;;;;2.0;104.0;
78519;SPS30;67818;51.986;5.648;2023-09-19T06:16:09;4.4;4.1;3.5;2.6;;;;2.0;120.0;
78519;SPS30;67818;51.986;5.648;2023-09-19T06:18:37;4.2;3.9;3.3;2.5;;;;2.0;116.0;
78519;SPS30;67818;51.986;5.648;2023-09-19T06:21:06;3.9;3.7;3.2;2.4;;;;2.0;113.0;
78519;SPS30;67818;51.986;5.648;2023-09-19T06:23:35;4.7;4.4;3.7;2.8;;;;2.0;110.0;
78519;SPS30;67818;51.986;5.648;2023-09-19T06:26:04;4.6;4.3;3.7;2.8;;;;2.0;108.0;
78519;SPS30;67818;51.986;5.648;2023-09-19T06:28:34;4.5;4.2;3.6;2.7;;;;2.0;102.0;
78519;SPS30;67818;51.986;5.648;2023-09-19T06:31:03;4.8;4.4;3.7;2.6;;;;2.0;103.0;
78519;SPS30;67818;51.986;5.648;2023-09-19T06:33:36;4.9;4.6;3.8;2.8;;;;2.0;99.0;
78519;SPS30;67818;51.986;5.648;2023-09-19T06:36:06;4.6;4.3;3.6;2.7;;;;2.0;91.0;
78519;SPS30;67818;51.986;5.648;2023-09-19T06:38:35;3.6;3.4;3.0;2.3;;;;2.0;95.0;
78519;SPS30;67818;51.986;5.648;2023-09-19T06:41:06;3.7;3.5;3.0;2.3;;;;2.0;109.0;
78519;SPS30;67818;51.986;5.648;2023-09-19T06:43:38;4.7;4.4;3.7;2.7;;;;2.0;122.0;
78519;SPS30;67818;51.986;5.648;2023-09-19T06:46:06;4.8;4.4;3.7;2.7;;;;2.0;123.0;
78519;SPS30;67818;51.986;5.648;2023-09-19T06:48:37;4.2;3.9;3.2;2.4;;;;1.0;118.0;
78519;SPS30;67818;51.986;5.648;2023-09-19T06:51:10;5.1;4.7;3.9;2.8;;;;1.0;116.0;
78519;SPS30;67818;51.986;5.648;2023-09-19T06:53:41;4.6;4.3;3.5;2.5;;;;1.0;93.0;
78519;SPS30;67818;51.986;5.648;2023-09-19T06:56:12;4.4;4.1;3.4;2.5;;;;1.0;95.0;
78519;SPS30;67818;51.986;5.648;2023-09-19T06:58:40;4.4;4.1;3.5;2.6;;;;1.0;91.0;
78519;SPS30;67818;51.986;5.648;2023-09-19T07:01:09;5.1;4.7;3.9;2.8;;;;1.0;97.0;
78519;SPS30;67818;51.986;5.648;2023-09-19T07:03:41;4.3;4.0;3.4;2.6;;;;1.0;96.0;
78519;SPS30;67818;51.986;5.648;2023-09-19T07:06:11;3.8;3.6;3.1;2.3;;;;1.0;97.0;
78519;SPS30;67818;51.986;5.648;2023-09-19T07:08:41;3.9;3.6;3.1;2.4;;;;1.0;99.0;
78519;SPS30;67818;51.986;5.648;2023-09-19T07:11:11;4.4;4.1;3.5;2.7;;;;1.0;95.0;
78519;SPS30;67818;51.986;5.648;2023-09-19T07:13:40;4.2;3.9;3.2;2.3;;;;1.0;84.0;
78519;SPS30;67818;51.986;5.648;2023-09-19T07:16:11;4.2;3.9;3.2;2.4;;;;1.0;85.0;
78519;SPS30;67818;51.986;5.648;2023-09-19T07:18:44;4.9;4.5;3.8;2.8;;;;1.0;107.0;
78519;SPS30;67818;51.986;5.648;2023-09-19T07:21:13;5.0;4.6;3.7;2.5;;;;1.0;109.0;
78519;SPS30;67818;51.986;5.648;2023-09-19T07:23:42;4.7;4.3;3.6;2.5;;;;1.0;103.0;
78519;SPS30;67818;51.986;5.648;2023-09-19T07:26:12;5.7;5.2;4.2;2.8;;;;1.0;98.0;
78519;SPS30;67818;51.986;5.648;2023-09-19T07:28:41;5.1;4.7;3.9;2.8;;;;1.0;96.0;
78519;SPS30;67818;51.986;5.648;2023-09-19T07:31:10;5.4;5.0;4.0;2.8;;;;1.0;93.0;
78519;SPS30;67818;51.986;5.648;2023-09-19T07:33:40;5.8;5.4;4.4;3.1;;;;1.0;82.0;
78519;SPS30;67818;51.986;5.648;2023-09-19T07:36:12;5.0;4.6;3.7;2.6;;;;1.0;98.0;
78519;SPS30;67818;51.986;5.648;2023-09-19T07:38:42;6.5;6.0;4.8;3.3;;;;1.0;103.0;
78519;SPS30;67818;51.986;5.648;2023-09-19T07:41:11;5.1;4.6;3.8;2.6;;;;1.0;100.0;
78519;SPS30;67818;51.986;5.648;2023-09-19T07:43:39;5.7;5.3;4.4;3.1;;;;1.0;99.0;
78519;SPS30;67818;51.986;5.648;2023-09-19T07:46:10;4.9;4.5;3.7;2.7;;;;1.0;100.0;
78519;SPS30;67818;51.986;5.648;2023-09-19T07:48:39;4.3;4.0;3.2;2.2;;;;1.0;95.0;
78519;SPS30;67818;51.986;5.648;2023-09-19T07:51:10;5.0;4.6;3.8;2.6;;;;1.0;109.0;
78519;SPS30;67818;51.986;5.648;2023-09-19T07:53:42;4.7;4.4;3.5;2.4;;;;1.0;106.0;
78519;SPS30;67818;51.986;5.648;2023-09-19T07:56:14;5.6;5.2;4.3;3.0;;;;1.0;104.0;
78519;SPS30;67818;51.986;5.648;2023-09-19T07:58:45;4.5;4.2;3.4;2.4;;;;1.0;104.0;
78519;SPS30;67818;51.986;5.648;2023-09-19T08:01:18;5.3;4.9;4.0;2.8;;;;1.0;85.0;
78519;SPS30;67818;51.986;5.648;2023-09-19T08:03:49;5.3;4.8;3.9;2.6;;;;1.0;89.0;
78519;SPS30;67818;51.986;5.648;2023-09-19T08:06:18;5.0;4.6;3.7;2.5;;;;1.0;93.0;
78519;SPS30;67818;51.986;5.648;2023-09-19T08:08:47;5.1;4.7;3.8;2.6;;;;1.0;94.0;
78519;SPS30;67818;51.986;5.648;2023-09-19T08:11:20;4.9;4.5;3.7;2.5;;;;1.0;91.0;
78519;SPS30;67818;51.986;5.648;2023-09-19T08:13:50;5.2;4.8;3.9;2.7;;;;1.0;91.0;
78519;SPS30;67818;51.986;5.648;2023-09-19T08:16:21;4.8;4.5;3.8;2.8;;;;1.0;89.0;
78519;SPS30;67818;51.986;5.648;2023-09-19T08:18:50;6.1;5.6;4.6;3.2;;;;1.0;89.0;
78519;SPS30;67818;51.986;5.648;2023-09-19T08:21:21;5.1;4.6;3.7;2.4;;;;1.0;88.0;
78519;SPS30;67818;51.986;5.648;2023-09-19T08:23:51;5.4;5.0;3.9;2.6;;;;1.0;79.0;
78519;SPS30;67818;51.986;5.648;2023-09-19T08:26:20;6.5;5.8;4.6;2.9;;;;1.0;99.0;
78519;SPS30;67818;51.986;5.648;2023-09-19T08:28:50;6.3;5.7;4.4;2.8;;;;1.0;105.0;
78519;SPS30;67818;51.986;5.648;2023-09-19T08:31:22;6.1;5.5;4.3;2.8;;;;1.0;80.0;
78519;SPS30;67818;51.986;5.648;2023-09-19T08:33:52;5.8;5.3;4.1;2.6;;;;1.0;88.0;
78519;SPS30;67818;51.986;5.648;2023-09-19T08:36:22;6.5;5.9;4.6;2.8;;;;1.0;103.0;
78519;SPS30;67818;51.986;5.648;2023-09-19T08:38:50;6.1;5.5;4.3;2.8;;;;1.0;105.0;
78519;SPS30;67818;51.986;5.648;2023-09-19T08:41:19;6.0;5.5;4.3;2.8;;;;1.0;116.0;
78519;SPS30;67818;51.986;5.648;2023-09-19T08:43:48;5.0;4.5;3.6;2.4;;;;1.0;109.0;
78519;SPS30;67818;51.986;5.648;2023-09-19T08:46:18;6.0;5.5;4.4;2.9;;;;1.0;91.0;
78519;SPS30;67818;51.986;5.648;2023-09-19T08:48:54;5.0;4.6;3.7;2.5;;;;1.0;81.0;
78519;SPS30;67818;51.986;5.648;2023-09-19T08:51:33;5.3;4.9;4.1;2.9;;;;1.0;89.0;
78519;SPS30;67818;51.986;5.648;2023-09-19T08:54:11;5.9;5.4;4.4;3.0;;;;1.0;95.0;
78519;SPS30;67818;51.986;5.648;2023-09-19T08:56:46;5.0;4.6;3.8;2.6;;;;1.0;101.0;
78519;SPS30;67818;51.986;5.648;2023-09-19T08:59:16;4.9;4.5;3.8;2.7;;;;1.0;103.0;
78519;SPS30;67818;51.986;5.648;2023-09-19T09:01:53;4.8;4.4;3.7;2.6;;;;1.0;99.0;
78519;SPS30;67818;51.986;5.648;2023-09-19T09:04:22;4.8;4.4;3.6;2.5;;;;1.0;98.0;
78519;SPS30;67818;51.986;5.648;2023-09-19T09:06:52;5.1;4.6;3.7;2.5;;;;1.0;92.0;
78519;SPS30;67818;51.986;5.648;2023-09-19T09:09:24;4.4;4.1;3.3;2.2;;;;1.0;107.0;
78519;SPS30;67818;51.986;5.648;2023-09-19T09:11:53;5.0;4.6;3.8;2.7;;;;1.0;99.0;
78519;SPS30;67818;51.986;5.648;2023-09-19T09:14:23;5.0;4.6;3.8;2.7;;;;1.0;89.0;
78519;SPS30;67818;51.986;5.648;2023-09-19T09:16:52;4.9;4.5;3.8;2.7;;;;1.0;66.0;
78519;SPS30;67818;51.986;5.648;2023-09-19T09:19:25;5.3;4.9;4.0;2.9;;;;1.0;72.0;
78519;SPS30;67818;51.986;5.648;2023-09-19T09:22:06;4.9;4.6;3.7;2.6;;;;1.0;73.0;
78519;SPS30;67818;51.986;5.648;2023-09-19T09:24:36;5.1;4.7;3.9;2.7;;;;1.0;77.0;
78519;SPS30;67818;51.986;5.648;2023-09-19T09:27:06;5.1;4.7;3.9;2.8;;;;1.0;69.0;
78519;SPS30;67818;51.986;5.648;2023-09-19T09:29:43;5.2;4.8;4.0;2.9;;;;1.0;70.0;
78519;SPS30;67818;51.986;5.648;2023-09-19T09:32:19;4.6;4.3;3.6;2.6;;;;1.0;68.0;
78519;SPS30;67818;51.986;5.648;2023-09-19T09:34:51;4.4;4.1;3.4;2.4;;;;1.0;66.0;
78519;SPS30;67818;51.986;5.648;2023-09-19T09:37:21;4.5;4.1;3.4;2.4;;;;1.0;69.0;
78519;SPS30;67818;51.986;5.648;2023-09-19T09:39:54;4.5;4.2;3.6;2.6;;;;1.0;79.0;
78519;SPS30;67818;51.986;5.648;2023-09-19T09:42:31;5.6;5.2;4.4;3.2;;;;1.0;57.0;
78519;SPS30;67818;51.986;5.648;2023-09-19T09:45:14;4.5;4.2;3.6;2.6;;;;1.0;56.0;
78519;SPS30;67818;51.986;5.648;2023-09-19T09:47:46;5.2;4.8;4.0;2.9;;;;1.0;62.0;
78519;SPS30;67818;51.986;5.648;2023-09-19T09:50:26;4.8;4.4;3.7;2.6;;;;1.0;47.0;
78519;SPS30;67818;51.986;5.648;2023-09-19T09:53:02;5.0;4.7;3.9;2.9;;;;1.0;49.0;
78519;SPS30;67818;51.986;5.648;2023-09-19T09:55:34;4.6;4.3;3.6;2.6;;;;1.0;52.0;
78519;SPS30;67818;51.986;5.648;2023-09-19T09:58:28;5.7;5.3;4.3;3.0;;;;1.0;49.0;
78519;SPS30;67818;51.986;5.648;2023-09-19T10:00:58;4.6;4.3;3.6;2.7;;;;1.0;51.0;
78519;SPS30;67818;51.986;5.648;2023-09-19T10:03:33;5.1;4.7;4.0;3.1;;;;1.0;59.0;
78519;SPS30;67818;51.986;5.648;2023-09-19T10:06:06;5.1;4.8;4.0;3.0;;;;1.0;64.0;
78519;SPS30;67818;51.986;5.648;2023-09-19T10:09:01;5.2;4.9;4.1;3.0;;;;1.0;72.0;
78519;SPS30;67818;51.986;5.648;2023-09-19T10:11:37;4.4;4.1;3.5;2.6;;;;1.0;79.0;
78519;SPS30;67818;51.986;5.648;2023-09-19T10:14:09;4.7;4.4;3.6;2.6;;;;1.0;74.0;
78519;SPS30;67818;51.986;5.648;2023-09-19T10:16:45;5.1;4.7;4.0;2.9;;;;1.0;81.0;
78519;SPS30;67818;51.986;5.648;2023-09-19T10:19:20;5.0;4.5;3.7;2.5;;;;1.0;78.0;
78519;SPS30;67818;51.986;5.648;2023-09-19T10:21:51;5.0;4.6;3.7;2.6;;;;1.0;70.0;
78519;SPS30;67818;51.986;5.648;2023-09-19T10:24:24;4.0;3.7;3.0;2.2;;;;1.0;59.0;
78519;SPS30;67818;51.986;5.648;2023-09-19T10:26:57;4.3;3.9;3.2;2.3;;;;1.0;71.0;
78519;SPS30;67818;51.986;5.648;2023-09-19T10:29:30;5.3;4.9;4.0;2.9;;;;1.0;82.0;
78519;SPS30;67818;51.986;5.648;2023-09-19T10:32:03;5.0;4.6;3.8;2.7;;;;1.0;82.0;
78519;SPS30;67818;51.986;5.648;2023-09-19T10:34:35;4.1;3.8;3.2;2.3;;;;1.0;98.0;
78519;SPS30;67818;51.986;5.648;2023-09-19T10:37:07;4.7;4.3;3.6;2.6;;;;1.0;93.0;
78519;SPS30;67818;51.986;5.648;2023-09-19T10:39:46;4.6;4.3;3.5;2.5;;;;1.0;107.0;
78519;SPS30;67818;51.986;5.648;2023-09-19T10:42:19;3.7;3.4;2.8;2.0;;;;1.0;99.0;
78519;SPS30;67818;51.986;5.648;2023-09-19T10:44:50;5.5;5.1;4.3;3.2;;;;1.0;96.0;
78519;SPS30;67818;51.986;5.648;2023-09-19T10:47:21;4.9;4.6;3.8;2.8;;;;1.0;107.0;
78519;SPS30;67818;51.986;5.648;2023-09-19T10:49:50;4.8;4.5;3.8;2.8;;;;1.0;105.0;
78519;SPS30;67818;51.986;5.648;2023-09-19T10:52:20;3.9;3.6;3.1;2.3;;;;1.0;91.0;
78519;SPS30;67818;51.986;5.648;2023-09-19T10:54:53;3.8;3.6;3.0;2.2;;;;1.0;80.0;
78519;SPS30;67818;51.986;5.648;2023-09-19T10:57:27;4.0;3.7;3.2;2.4;;;;1.0;84.0;
78519;SPS30;67818;51.986;5.648;2023-09-19T11:00:05;3.2;3.0;2.6;2.0;;;;1.0;85.0;
78519;SPS30;67818;51.986;5.648;2023-09-19T11:03:18;3.9;3.7;3.3;2.6;;;;1.0;84.0;
78519;SPS30;67818;51.986;5.648;2023-09-19T11:06:02;4.0;3.7;3.2;2.4;;;;1.0;92.0;
78519;SPS30;67818;51.986;5.648;2023-09-19T11:08:57;3.4;3.2;2.8;2.1;;;;1.0;101.0;
78519;SPS30;67818;51.986;5.648;2023-09-19T11:13:28;3.9;3.7;3.3;2.6;;;;1.0;89.0;
78519;SPS30;67818;51.986;5.648;2023-09-19T11:16:05;3.5;3.3;2.9;2.3;;;;1.0;98.0;
78519;SPS30;67818;51.986;5.648;2023-09-19T11:20:26;4.3;4.1;3.5;2.8;;;;1.0;111.0;
78519;SPS30;67818;51.986;5.648;2023-09-19T11:23:19;3.8;3.6;3.1;2.3;;;;1.0;100.0;
78519;SPS30;67818;51.986;5.648;2023-09-19T11:25:57;4.3;4.0;3.4;2.5;;;;1.0;103.0;
78519;SPS30;67818;51.986;5.648;2023-09-19T11:28:29;3.5;3.3;2.8;2.1;;;;1.0;96.0;
78519;SPS30;67818;51.986;5.648;2023-09-19T11:31:41;3.7;3.5;3.0;2.3;;;;1.0;122.0;
78519;SPS30;67818;51.986;5.648;2023-09-19T11:33:51;3.0;2.8;2.5;1.9;;;;1.0;109.0;
78519;SPS30;67818;51.986;5.648;2023-09-19T11:36:57;3.8;3.6;3.1;2.4;;;;1.0;133.0;
78519;SPS30;67818;51.986;5.648;2023-09-19T11:39:26;3.2;3.0;2.6;2.0;;;;1.0;119.0;
78519;SPS30;67818;51.986;5.648;2023-09-19T11:41:56;3.1;2.9;2.5;1.9;;;;1.0;116.0;
78519;SPS30;67818;51.986;5.648;2023-09-19T11:44:35;3.4;3.2;2.8;2.2;;;;1.0;126.0;
78519;SPS30;67818;51.986;5.648;2023-09-19T11:47:07;3.6;3.4;3.0;2.4;;;;1.0;122.0;
78519;SPS30;67818;51.986;5.648;2023-09-19T11:49:40;3.8;3.6;3.1;2.4;;;;1.0;145.0;
78519;SPS30;67818;51.986;5.648;2023-09-19T11:52:18;3.1;2.9;2.5;2.0;;;;1.0;134.0;
78519;SPS30;67818;51.986;5.648;2023-09-19T11:54:55;3.3;3.1;2.7;2.0;;;;1.0;165.0;
78519;SPS30;67818;51.986;5.648;2023-09-19T11:57:25;3.4;3.1;2.7;2.0;;;;1.0;102.0;
78519;SPS30;67818;51.986;5.648;2023-09-19T11:59:56;2.8;2.6;2.2;1.6;;;;1.0;112.0;
78519;SPS30;67818;51.986;5.648;2023-09-19T12:02:32;2.6;2.4;2.0;1.4;;;;1.0;141.0;
78519;SPS30;67818;51.986;5.648;2023-09-19T12:05:09;2.6;2.4;2.1;1.6;;;;1.0;127.0;
78519;SPS30;67818;51.986;5.648;2023-09-19T12:07:44;2.6;2.4;2.1;1.6;;;;1.0;120.0;
78519;SPS30;67818;51.986;5.648;2023-09-19T12:10:14;2.8;2.7;2.3;1.7;;;;1.0;163.0;
78519;SPS30;67818;51.986;5.648;2023-09-19T12:12:48;2.4;2.3;1.9;1.4;;;;1.0;136.0;
78519;SPS30;67818;51.986;5.648;2023-09-19T12:15:24;2.4;2.2;1.9;1.4;;;;1.0;96.0;
78519;SPS30;67818;51.986;5.648;2023-09-19T12:17:54;2.7;2.5;2.1;1.5;;;;1.0;107.0;
78519;SPS30;67818;51.986;5.648;2023-09-19T12:20:23;1.9;1.8;1.5;1.2;;;;1.0;110.0;
78519;SPS30;67818;51.986;5.648;2023-09-19T12:22:52;2.4;2.3;2.0;1.5;;;;1.0;106.0;
78519;SPS30;67818;51.986;5.648;2023-09-19T12:25:21;2.7;2.5;2.2;1.7;;;;1.0;126.0;
78519;SPS30;67818;51.986;5.648;2023-09-19T12:27:51;2.9;2.7;2.4;1.8;;;;1.0;126.0;
78519;SPS30;67818;51.986;5.648;2023-09-19T12:30:27;1.8;1.7;1.5;1.2;;;;1.0;95.0;
78519;SPS30;67818;51.986;5.648;2023-09-19T12:32:59;2.2;2.0;1.8;1.3;;;;1.0;83.0;
78519;SPS30;67818;51.986;5.648;2023-09-19T12:35:29;2.4;2.2;1.9;1.5;;;;1.0;88.0;
78519;SPS30;67818;51.986;5.648;2023-09-19T12:38:01;2.5;2.3;1.9;1.4;;;;1.0;74.0;
78519;SPS30;67818;51.986;5.648;2023-09-19T12:40:31;2.9;2.7;2.3;1.7;;;;1.0;85.0;